Time;durP1;ratioP1;P1;durP2;ratioP2;P2;SDS_P1;SDS_P2;PMS_P1;PMS_P2;Temp;Humidity;BMP_temperature;BMP_pressure;BME280_temperature;BME280_humidity;BME280_pressure;Samples;Min_cycle;Max_cycle;Signal;HPM_P1;HPM_P2
2024/02/12 00:00:22;;;;;;;16.77;3.15;;;9.40;99.90;;;;;;4268103;27;20050;-59
2024/02/12 00:02:28;;;;;;;14.70;2.70;;;9.40;99.90;;;;;;4268368;27;20409;-60
2024/02/12 00:04:33;;;;;;;10.18;2.97;;;9.40;99.90;;;;;;4268227;27;20580;-60
2024/02/12 00:06:35;;;;;;;13.95;3.33;;;9.50;99.90;;;;;;4267772;27;20047;-59
2024/02/12 00:08:37;;;;;;;16.70;3.33;;;9.40;99.90;;;;;;4268185;27;20039;-60
2024/02/12 00:10:40;;;;;;;17.75;3.45;;;9.30;99.90;;;;;;4268203;27;20429;-62
2024/02/12 00:12:43;;;;;;;12.65;3.30;;;9.30;99.90;;;;;;4268373;27;20063;-60
2024/02/12 00:14:45;;;;;;;11.30;3.03;;;9.30;99.90;;;;;;4267896;27;20486;-61
2024/02/12 00:16:47;;;;;;;13.98;2.80;;;9.30;99.90;;;;;;4249641;27;20043;-60
2024/02/12 00:18:51;;;;;;;16.02;3.33;;;9.40;99.90;;;;;;4267767;27;20039;-60
2024/02/12 00:20:53;;;;;;;16.27;3.00;;;9.30;99.90;;;;;;4249214;27;20043;-60
2024/02/12 00:22:55;;;;;;;11.73;3.45;;;9.20;99.90;;;;;;4268096;27;20130;-59
2024/02/12 00:24:57;;;;;;;13.75;3.35;;;9.20;99.90;;;;;;4268073;27;20053;-60
2024/02/12 00:27:03;;;;;;;15.20;3.13;;;9.20;99.90;;;;;;4267949;27;20043;-60
2024/02/12 00:29:05;;;;;;;14.43;3.95;;;9.10;99.90;;;;;;4268042;27;20050;-59
2024/02/12 00:31:12;;;;;;;12.82;3.20;;;9.20;99.90;;;;;;4267632;27;20047;-60
2024/02/12 00:33:14;;;;;;;20.42;3.63;;;9.10;99.90;;;;;;4267904;27;20053;-60
2024/02/12 00:35:18;;;;;;;16.67;3.22;;;9.10;99.90;;;;;;4267432;27;20100;-61
2024/02/12 00:37:20;;;;;;;14.93;3.42;;;9.10;99.90;;;;;;4268766;27;20501;-60
2024/02/12 00:39:23;;;;;;;12.50;2.75;;;9.10;99.90;;;;;;4268490;27;20046;-66
2024/02/12 00:41:26;;;;;;;19.67;4.22;;;9.20;99.90;;;;;;4268297;27;20042;-61
2024/02/12 00:43:28;;;;;;;16.00;3.15;;;9.10;99.90;;;;;;4269537;27;20095;-63
2024/02/12 00:45:31;;;;;;;15.02;3.30;;;9.20;99.90;;;;;;4268695;27;20042;-60
2024/02/12 00:47:34;;;;;;;17.63;3.88;;;9.30;99.90;;;;;;4267896;27;20114;-60
2024/02/12 00:49:39;;;;;;;16.00;3.75;;;9.30;99.90;;;;;;4267612;27;20130;-60
2024/02/12 00:51:43;;;;;;;17.15;3.50;;;9.30;99.90;;;;;;4267003;27;20070;-61
2024/02/12 00:53:46;;;;;;;19.92;4.00;;;9.20;99.90;;;;;;4267448;27;20053;-61
2024/02/12 00:55:49;;;;;;;20.90;3.65;;;9.10;99.90;;;;;;4267497;27;20047;-60
2024/02/12 00:57:51;;;;;;;19.10;4.10;;;9.20;99.90;;;;;;4267292;27;20100;-60
2024/02/12 00:59:53;;;;;;;15.27;3.42;;;9.40;99.90;;;;;;4267437;27;20039;-63
2024/02/12 01:01:56;;;;;;;15.55;2.97;;;9.50;99.90;;;;;;4267171;27;20047;-61
2024/02/12 01:03:58;;;;;;;14.90;3.63;;;9.50;99.90;;;;;;4266868;27;20050;-60
2024/02/12 01:06:01;;;;;;;11.27;2.80;;;9.40;99.90;;;;;;4267156;27;20047;-59
2024/02/12 01:08:06;;;;;;;17.73;3.20;;;9.50;99.90;;;;;;4266923;27;20051;-59
2024/02/12 01:10:09;;;;;;;19.25;3.50;;;9.50;99.90;;;;;;4267234;27;20447;-60
2024/02/12 01:12:11;;;;;;;15.10;3.10;;;9.40;99.90;;;;;;4267050;27;20050;-60
2024/02/12 01:14:13;;;;;;;22.15;3.65;;;9.40;99.90;;;;;;4266930;27;20047;-60
2024/02/12 01:16:18;;;;;;;16.38;2.95;;;9.40;99.90;;;;;;4267031;27;20401;-60
2024/02/12 01:18:20;;;;;;;14.63;3.88;;;9.30;99.90;;;;;;4267055;27;20066;-60
2024/02/12 01:20:22;;;;;;;14.52;3.08;;;9.20;99.90;;;;;;4266538;27;20416;-60
2024/02/12 01:22:25;;;;;;;12.65;2.65;;;9.20;99.90;;;;;;4266878;27;20126;-60
2024/02/12 01:24:28;;;;;;;16.27;3.03;;;9.30;99.90;;;;;;4266684;27;20073;-62
2024/02/12 01:26:36;;;;;;;16.70;3.38;;;9.20;99.90;;;;;;4266715;27;20081;-61
2024/02/12 01:28:38;;;;;;;17.05;3.67;;;9.30;99.90;;;;;;4266653;27;20047;-61
2024/02/12 01:30:42;;;;;;;20.60;3.22;;;9.30;99.90;;;;;;4266662;27;20050;-60
2024/02/12 01:32:44;;;;;;;17.65;3.00;;;9.30;99.90;;;;;;4267005;27;20043;-60
2024/02/12 01:34:46;;;;;;;13.32;2.72;;;9.30;99.90;;;;;;4266308;27;20118;-60
2024/02/12 01:36:48;;;;;;;13.23;3.42;;;9.40;99.90;;;;;;4266528;27;20104;-61
2024/02/12 01:38:51;;;;;;;17.13;3.88;;;9.30;99.90;;;;;;4266574;27;20122;-61
2024/02/12 01:40:55;;;;;;;13.57;3.42;;;9.20;99.90;;;;;;4266687;27;20070;-60
2024/02/12 01:42:57;;;;;;;16.55;3.72;;;9.30;99.90;;;;;;4266725;27;20042;-60
2024/02/12 01:45:11;;;;;;;12.90;2.88;;;9.20;99.90;;;;;;4266555;27;20054;-59
2024/02/12 01:47:15;;;;;;;13.15;2.90;;;9.30;99.90;;;;;;4266318;27;20128;-60
2024/02/12 01:49:26;;;;;;;17.30;3.60;;;9.10;99.90;;;;;;4266297;27;20042;-61
2024/02/12 01:51:28;;;;;;;21.23;3.67;;;9.20;99.90;;;;;;4266326;27;20054;-60
2024/02/12 01:53:30;;;;;;;23.60;4.90;;;9.00;99.90;;;;;;4266521;27;20043;-60
2024/02/12 01:55:34;;;;;;;22.45;3.83;;;9.10;99.90;;;;;;4266043;27;20059;-60
2024/02/12 01:57:38;;;;;;;16.30;3.28;;;9.10;99.90;;;;;;4266168;27;20045;-59
2024/02/12 01:59:40;;;;;;;;;;;9.10;99.90;;;;;;4267180;27;20047;-60
2024/02/12 02:01:43;;;;;;;17.90;3.53;;;9.20;99.90;;;;;;4266345;27;20261;-60
2024/02/12 02:03:46;;;;;;;18.13;3.50;;;9.20;99.90;;;;;;4265691;27;20504;-59
2024/02/12 02:05:49;;;;;;;15.23;3.17;;;9.10;99.90;;;;;;4247786;27;20047;-60
2024/02/12 02:07:56;;;;;;;15.80;3.65;;;9.10;99.90;;;;;;4266044;27;20386;-60
2024/02/12 02:09:58;;;;;;;15.15;3.13;;;9.10;99.90;;;;;;4266715;27;20420;-60
2024/02/12 02:12:02;;;;;;;17.10;3.08;;;9.10;99.90;;;;;;4266606;27;20042;-59
2024/02/12 02:14:05;;;;;;;23.17;3.53;;;9.00;99.90;;;;;;4266652;27;20117;-60
2024/02/12 02:16:07;;;;;;;17.40;3.80;;;9.00;99.90;;;;;;4266561;27;20480;-60
2024/02/12 02:18:09;;;;;;;18.13;3.90;;;8.90;99.90;;;;;;4265699;27;20092;-59
2024/02/12 02:20:12;;;;;;;17.75;3.50;;;8.90;99.90;;;;;;4265979;27;20047;-60
2024/02/12 02:22:16;;;;;;;15.52;3.05;;;9.00;99.90;;;;;;4266057;27;20058;-60
2024/02/12 02:24:20;;;;;;;17.88;3.42;;;9.10;99.90;;;;;;4265930;27;20451;-60
2024/02/12 02:26:23;;;;;;;14.18;3.50;;;9.20;99.90;;;;;;4266019;27;20386;-60
2024/02/12 02:28:27;;;;;;;20.42;4.03;;;9.10;99.90;;;;;;4265858;27;20086;-59
2024/02/12 02:30:29;;;;;;;19.38;3.97;;;9.20;99.90;;;;;;4265874;27;20107;-59
2024/02/12 02:32:31;;;;;;;24.13;3.80;;;9.30;99.90;;;;;;4265639;27;20045;-60
2024/02/12 02:34:33;;;;;;;21.17;4.38;;;9.20;99.90;;;;;;4265832;27;20459;-60
2024/02/12 02:36:35;;;;;;;15.38;3.72;;;9.10;99.90;;;;;;4265514;27;20047;-60
2024/02/12 02:38:37;;;;;;;18.75;3.78;;;9.10;99.90;;;;;;4265725;27;20387;-60
2024/02/12 02:40:42;;;;;;;20.90;3.78;;;9.20;99.90;;;;;;4265636;27;20051;-60
2024/02/12 02:42:46;;;;;;;;;;;9.00;99.90;;;;;;4266408;27;20126;-60
2024/02/12 02:44:49;;;;;;;13.32;3.40;;;9.10;99.90;;;;;;4265423;27;20005;-60
2024/02/12 02:46:51;;;;;;;19.38;3.30;;;9.00;99.90;;;;;;4265372;27;20077;-61
2024/02/12 02:48:53;;;;;;;18.60;3.55;;;9.10;99.90;;;;;;4265460;27;20054;-60
2024/02/12 02:50:57;;;;;;;19.38;3.35;;;9.20;99.90;;;;;;4265517;27;20103;-60
2024/02/12 02:52:59;;;;;;;17.58;3.28;;;9.20;99.90;;;;;;4265490;27;20046;-60
2024/02/12 02:55:02;;;;;;;17.50;3.75;;;9.20;99.90;;;;;;4265075;27;20051;-61
2024/02/12 02:57:07;;;;;;;18.00;3.22;;;9.20;99.90;;;;;;4265192;27;20053;-60
2024/02/12 02:59:09;;;;;;;17.52;3.72;;;9.20;99.90;;;;;;4265381;27;20126;-60
2024/02/12 03:01:12;;;;;;;15.25;3.72;;;9.30;99.90;;;;;;4265310;27;20039;-60
2024/02/12 03:03:14;;;;;;;24.58;4.25;;;9.20;99.90;;;;;;4265352;27;20071;-61
2024/02/12 03:05:17;;;;;;;14.15;3.72;;;9.20;99.90;;;;;;4265463;27;20046;-60
2024/02/12 03:07:19;;;;;;;18.98;3.05;;;9.30;99.90;;;;;;4265536;27;20133;-60
2024/02/12 03:09:22;;;;;;;15.80;3.60;;;9.30;99.90;;;;;;4265251;27;20047;-60
2024/02/12 03:11:25;;;;;;;16.15;3.67;;;9.30;99.90;;;;;;4265504;27;20053;-59
2024/02/12 03:13:29;;;;;;;20.77;3.75;;;9.30;99.90;;;;;;4265486;27;20043;-60
2024/02/12 03:15:33;;;;;;;20.92;3.05;;;9.30;99.90;;;;;;4266170;27;20136;-59
2024/02/12 03:17:35;;;;;;;13.23;3.20;;;9.30;99.90;;;;;;4268780;27;20042;-60
2024/02/12 03:19:39;;;;;;;18.00;3.63;;;9.40;99.90;;;;;;4269036;27;20479;-60
2024/02/12 03:21:42;;;;;;;19.13;3.53;;;9.40;99.90;;;;;;4268798;27;20489;-60
2024/02/12 03:23:44;;;;;;;13.00;3.28;;;9.50;99.90;;;;;;4268575;27;20042;-60
2024/02/12 03:25:46;;;;;;;15.10;3.58;;;9.50;99.90;;;;;;4268955;27;20047;-60
2024/02/12 03:27:49;;;;;;;19.08;2.85;;;9.50;99.90;;;;;;4268802;27;20039;-60
2024/02/12 03:29:52;;;;;;;25.08;3.90;;;9.60;99.90;;;;;;4268393;27;20047;-64
2024/02/12 03:31:54;;;;;;;20.08;3.75;;;9.60;99.90;;;;;;4268822;27;20401;-60
2024/02/12 03:33:56;;;;;;;17.38;3.22;;;9.50;99.90;;;;;;4268474;27;20103;-60
2024/02/12 03:35:58;;;;;;;16.13;3.97;;;9.50;99.90;;;;;;4268296;27;20073;-60
2024/02/12 03:38:00;;;;;;;21.13;3.47;;;9.50;99.90;;;;;;4269014;27;20496;-60
2024/02/12 03:40:04;;;;;;;14.85;3.58;;;9.40;99.90;;;;;;4268870;27;20051;-60
2024/02/12 03:42:09;;;;;;;13.68;3.35;;;9.40;99.90;;;;;;4268893;27;20071;-60
2024/02/12 03:44:11;;;;;;;17.45;3.90;;;9.40;99.90;;;;;;4268943;27;20046;-61
2024/02/12 03:46:19;;;;;;;21.55;3.67;;;9.50;99.90;;;;;;4268692;27;20137;-60
2024/02/12 04:00:11;;;;;;;17.05;3.38;;;9.70;99.90;;;;;;4268130;27;20493;-60
2024/02/12 04:02:14;;;;;;;21.25;3.95;;;9.80;99.90;;;;;;4268380;27;20486;-60
2024/02/12 04:04:18;;;;;;;13.02;3.20;;;9.80;99.90;;;;;;4267991;27;20051;-60
2024/02/12 04:06:20;;;;;;;17.35;3.38;;;9.80;99.90;;;;;;4268175;27;20035;-61
2024/02/12 04:08:22;;;;;;;18.23;3.83;;;9.70;99.90;;;;;;4268126;27;20478;-60
2024/02/12 04:10:24;;;;;;;12.95;3.58;;;9.70;99.90;;;;;;4268278;27;20042;-61
2024/02/12 04:12:32;;;;;;;16.05;3.65;;;9.80;99.90;;;;;;4267608;27;20410;-61
2024/02/12 04:14:35;;;;;;;16.40;3.25;;;9.80;99.90;;;;;;4268204;27;20043;-61
2024/02/12 04:16:37;;;;;;;14.07;3.08;;;9.90;99.90;;;;;;4268076;27;20055;-60
2024/02/12 04:18:46;;;;;;;13.68;3.70;;;9.80;99.90;;;;;;4268005;27;20046;-60
2024/02/12 04:20:49;;;;;;;15.80;3.45;;;9.90;99.90;;;;;;4268016;27;20066;-60
2024/02/12 04:22:52;;;;;;;12.82;2.97;;;9.90;99.90;;;;;;4268048;27;20049;-61
2024/02/12 04:24:55;;;;;;;19.98;3.80;;;9.80;99.90;;;;;;4267943;27;20043;-60
2024/02/12 04:26:57;;;;;;;12.95;3.33;;;9.90;99.90;;;;;;4267299;27;20437;-60
2024/02/12 04:29:00;;;;;;;16.55;3.10;;;10.00;99.90;;;;;;4267662;27;20117;-60
2024/02/12 04:31:02;;;;;;;13.48;3.85;;;10.00;99.90;;;;;;4267831;27;20066;-60
2024/02/12 04:33:04;;;;;;;18.95;3.97;;;9.90;99.90;;;;;;4267848;27;20493;-61
2024/02/12 04:35:08;;;;;;;18.55;3.67;;;9.80;99.90;;;;;;4267783;27;20043;-60
2024/02/12 04:37:11;;;;;;;18.65;3.40;;;9.80;99.90;;;;;;4267301;27;20091;-60
2024/02/12 04:39:17;;;;;;;17.10;3.42;;;9.80;99.90;;;;;;4267606;27;20053;-60
2024/02/12 04:41:19;;;;;;;20.30;3.25;;;9.80;99.90;;;;;;4267712;27;20053;-61
2024/02/12 04:43:22;;;;;;;19.73;3.40;;;9.80;99.90;;;;;;4267108;27;20074;-60
2024/02/12 04:45:24;;;;;;;15.35;3.38;;;10.00;99.90;;;;;;4267446;27;20085;-61
2024/02/12 04:47:29;;;;;;;16.40;3.20;;;10.00;99.90;;;;;;4267553;27;20058;-60
2024/02/12 04:49:36;;;;;;;16.75;3.40;;;10.00;99.90;;;;;;4267367;27;20039;-60
2024/02/12 04:51:40;;;;;;;16.45;3.95;;;10.00;99.90;;;;;;4267644;27;20070;-60
2024/02/12 04:53:43;;;;;;;16.75;3.47;;;9.90;99.90;;;;;;4267584;27;20047;-60
2024/02/12 04:55:45;;;;;;;18.27;4.15;;;9.90;99.90;;;;;;4267151;27;20069;-61
2024/02/12 04:57:47;;;;;;;20.20;3.58;;;9.90;99.90;;;;;;4267058;27;20076;-60
2024/02/12 04:59:52;;;;;;;19.58;3.55;;;9.80;99.90;;;;;;4267571;27;20117;-60
2024/02/12 05:01:54;;;;;;;16.33;3.38;;;9.80;99.90;;;;;;4267467;27;20481;-60
2024/02/12 05:03:58;;;;;;;16.55;3.75;;;9.80;99.90;;;;;;4267582;27;20054;-61
2024/02/12 05:06:01;;;;;;;17.45;3.70;;;9.80;99.90;;;;;;4267303;27;20069;-61
2024/02/12 05:08:04;;;;;;;15.65;3.53;;;9.80;99.90;;;;;;4267842;27;20043;-60
2024/02/12 05:10:07;;;;;;;20.23;4.43;;;9.90;99.90;;;;;;4267183;27;20043;-60
2024/02/12 05:12:09;;;;;;;14.68;3.08;;;9.90;99.90;;;;;;4270719;27;20067;-62
2024/02/12 05:14:11;;;;;;;15.20;2.97;;;10.00;99.90;;;;;;4271127;27;20090;-73
2024/02/12 05:16:14;;;;;;;19.88;3.78;;;9.90;99.90;;;;;;4271077;27;20047;-71
2024/02/12 05:22:57;;;;;;;17.85;3.95;;;9.90;99.90;;;;;;4268362;27;20043;-60
2024/02/12 05:25:03;;;;;;;20.90;4.72;;;10.00;99.90;;;;;;4267799;27;20054;-63
2024/02/12 05:27:05;;;;;;;15.85;3.58;;;10.00;99.90;;;;;;4268648;27;20039;-61
2024/02/12 05:29:07;;;;;;;15.70;3.90;;;9.90;99.90;;;;;;4267725;27;20138;-60
2024/02/12 05:31:09;;;;;;;16.33;3.40;;;9.90;99.90;;;;;;4267613;27;20057;-61
2024/02/12 05:33:11;;;;;;;15.27;3.05;;;9.90;99.90;;;;;;4267014;27;20047;-60
2024/02/12 05:35:14;;;;;;;18.25;3.55;;;9.90;99.90;;;;;;4267078;27;20417;-60
2024/02/12 05:37:16;;;;;;;17.17;3.80;;;9.90;99.90;;;;;;4266523;27;20049;-61
2024/02/12 05:39:19;;;;;;;11.98;2.97;;;10.00;99.90;;;;;;4266098;27;20070;-60
2024/02/12 05:41:22;;;;;;;13.55;3.30;;;10.00;99.90;;;;;;4266227;27;20043;-60
2024/02/12 05:43:24;;;;;;;16.10;3.55;;;9.90;99.90;;;;;;4248531;27;20130;-61
2024/02/12 05:45:27;;;;;;;17.42;3.88;;;10.00;99.90;;;;;;4266808;27;20231;-60
2024/02/12 05:47:29;;;;;;;15.82;2.92;;;10.00;99.90;;;;;;4266592;27;20397;-61
2024/02/12 05:49:33;;;;;;;14.93;3.78;;;10.00;99.90;;;;;;4266590;27;20054;-60
2024/02/12 05:51:35;;;;;;;16.42;3.10;;;10.00;99.90;;;;;;4266490;27;20066;-60
2024/02/12 05:53:37;;;;;;;19.77;3.75;;;9.90;99.90;;;;;;4248229;27;20043;-60
2024/02/12 05:55:40;;;;;;;15.00;3.47;;;9.90;99.90;;;;;;4265827;27;20043;-60
2024/02/12 05:57:43;;;;;;;15.65;3.70;;;9.80;99.90;;;;;;4266350;27;20042;-60
2024/02/12 05:59:45;;;;;;;16.05;3.58;;;9.80;99.90;;;;;;4266287;27;20485;-61
2024/02/12 06:01:47;;;;;;;14.48;3.38;;;9.80;99.90;;;;;;4266412;27;20481;-60
2024/02/12 06:03:49;;;;;;;17.27;3.35;;;10.00;99.90;;;;;;4266214;27;20545;-60
2024/02/12 06:05:52;;;;;;;20.80;3.25;;;10.00;99.90;;;;;;4266132;27;20102;-60
2024/02/12 06:07:54;;;;;;;18.15;3.40;;;10.00;99.90;;;;;;4266083;27;20043;-60
2024/02/12 06:09:56;;;;;;;14.25;3.30;;;10.00;99.90;;;;;;4265833;27;20091;-60
2024/02/12 06:11:58;;;;;;;16.45;3.47;;;10.10;99.90;;;;;;4266334;27;20049;-60
2024/02/12 06:14:02;;;;;;;11.68;3.28;;;9.90;99.90;;;;;;4265952;27;20043;-60
2024/02/12 06:16:04;;;;;;;15.43;3.50;;;9.90;99.90;;;;;;4266005;27;20123;-61
2024/02/12 06:18:06;;;;;;;15.38;3.88;;;9.90;99.90;;;;;;4265961;27;20050;-61
2024/02/12 06:20:12;;;;;;;10.80;3.20;;;9.90;99.90;;;;;;4265905;27;20087;-60
2024/02/12 06:22:14;;;;;;;14.57;3.10;;;10.00;99.90;;;;;;4265885;27;20042;-60
2024/02/12 06:24:17;;;;;;;14.45;3.13;;;9.90;99.90;;;;;;4265580;27;20054;-61
2024/02/12 06:26:19;;;;;;;17.58;4.13;;;9.90;99.90;;;;;;4247747;27;20066;-60
2024/02/12 06:28:23;;;;;;;11.50;2.65;;;10.00;99.90;;;;;;4265808;27;20031;-61
2024/02/12 06:30:27;;;;;;;22.70;3.92;;;10.00;99.90;;;;;;4266007;27;20130;-60
2024/02/12 06:32:29;;;;;;;16.77;3.40;;;10.10;99.90;;;;;;4265975;27;20077;-60
2024/02/12 06:34:33;;;;;;;17.73;3.72;;;10.20;99.90;;;;;;4266009;27;20069;-61
2024/02/12 06:36:36;;;;;;;12.48;3.47;;;10.10;99.90;;;;;;4265507;27;20111;-60
2024/02/12 06:38:38;;;;;;;18.92;3.97;;;10.20;99.90;;;;;;4265312;27;20074;-60
2024/02/12 06:40:40;;;;;;;15.57;3.10;;;10.20;99.90;;;;;;4265668;27;20042;-60
2024/02/12 06:42:42;;;;;;;22.55;3.65;;;10.20;99.90;;;;;;4265649;27;20042;-60
2024/02/12 06:44:44;;;;;;;12.45;3.63;;;10.10;99.90;;;;;;4265655;27;20046;-60
2024/02/12 06:46:48;;;;;;;16.02;4.13;;;10.10;99.90;;;;;;4265736;27;20496;-60
2024/02/12 06:48:52;;;;;;;18.35;3.60;;;10.00;99.90;;;;;;4266350;27;20047;-60
2024/02/12 06:50:54;;;;;;;18.42;3.78;;;10.00;99.90;;;;;;4265142;27;20576;-60
2024/02/12 06:52:56;;;;;;;17.10;3.30;;;9.90;99.90;;;;;;4266101;27;20050;-60
2024/02/12 06:54:58;;;;;;;19.88;4.18;;;9.80;99.90;;;;;;4266007;27;20092;-60
2024/02/12 06:57:01;;;;;;;18.08;3.95;;;9.80;99.90;;;;;;4247681;27;20093;-60
2024/02/12 06:59:03;;;;;;;13.70;4.00;;;9.80;99.90;;;;;;4265333;27;20069;-60
2024/02/12 07:01:05;;;;;;;14.82;3.78;;;9.90;99.90;;;;;;4265669;27;20051;-60
2024/02/12 07:03:08;;;;;;;19.55;4.43;;;10.10;99.90;;;;;;4265237;27;20050;-61
2024/02/12 07:05:14;;;;;;;20.00;4.47;;;10.10;99.90;;;;;;4247096;27;20489;-60
2024/02/12 07:07:18;;;;;;;20.27;4.55;;;10.00;99.90;;;;;;4264830;27;20057;-60
2024/02/12 07:09:21;;;;;;;15.77;4.25;;;9.90;99.90;;;;;;4265404;27;20042;-60
2024/02/12 07:11:24;;;;;;;18.02;4.28;;;9.90;99.90;;;;;;4265331;27;20357;-60
2024/02/12 07:13:26;;;;;;;15.98;4.18;;;9.80;99.90;;;;;;4265241;27;20049;-60
2024/02/12 07:15:28;;;;;;;17.50;4.22;;;9.70;99.90;;;;;;4265128;27;20412;-61
2024/02/12 07:17:30;;;;;;;18.13;4.10;;;9.60;99.90;;;;;;4265214;27;20074;-60
2024/02/12 07:19:35;;;;;;;16.50;4.18;;;9.60;99.90;;;;;;4265224;27;20039;-61
2024/02/12 07:21:38;;;;;;;21.73;4.28;;;9.50;99.90;;;;;;4265202;27;20054;-61
2024/02/12 07:23:40;;;;;;;19.10;4.18;;;9.40;99.90;;;;;;4265260;27;20053;-61
2024/02/12 07:25:44;;;;;;;21.65;4.05;;;9.50;99.90;;;;;;4264981;27;20047;-60
2024/02/12 07:27:46;;;;;;;18.20;4.55;;;9.50;99.90;;;;;;4265035;27;20043;-60
2024/02/12 07:29:48;;;;;;;12.75;3.85;;;9.60;99.90;;;;;;4265222;27;20043;-60
2024/02/12 07:31:50;;;;;;;21.00;4.43;;;9.50;99.90;;;;;;4265292;27;20069;-60
2024/02/12 07:33:53;;;;;;;26.02;5.15;;;9.60;99.90;;;;;;4265074;27;20046;-60
2024/02/12 07:35:56;;;;;;;18.35;4.70;;;9.60;99.90;;;;;;4264451;27;20043;-60
2024/02/12 07:37:58;;;;;;;15.98;4.43;;;9.60;99.90;;;;;;4264882;27;20561;-60
2024/02/12 07:40:01;;;;;;;16.85;5.10;;;9.70;99.90;;;;;;4265480;27;20054;-60
2024/02/12 07:42:05;;;;;;;22.27;4.25;;;9.70;99.90;;;;;;4265108;27;20099;-60
2024/02/12 07:44:10;;;;;;;16.00;4.40;;;9.70;99.90;;;;;;4265235;27;20074;-60
2024/02/12 07:46:14;;;;;;;18.40;4.65;;;9.60;99.90;;;;;;4265137;27;20481;-61
2024/02/12 07:48:16;;;;;;;13.10;4.20;;;9.70;99.90;;;;;;4265417;27;20474;-61
2024/02/12 07:50:19;;;;;;;21.80;4.68;;;9.70;99.90;;;;;;4265211;27;20043;-61
2024/02/12 07:52:23;;;;;;;19.30;4.65;;;9.70;99.90;;;;;;4265040;27;20075;-60
2024/02/12 07:54:26;;;;;;;23.95;4.68;;;9.80;99.90;;;;;;4265121;27;20134;-60
2024/02/12 07:56:29;;;;;;;18.05;4.57;;;9.80;99.90;;;;;;4264963;27;20058;-60
2024/02/12 07:58:31;;;;;;;16.85;4.55;;;9.80;99.90;;;;;;4264704;27;20481;-60
2024/02/12 08:00:33;;;;;;;14.65;4.55;;;9.80;99.90;;;;;;4246593;27;20039;-62
2024/02/12 08:02:35;;;;;;;17.80;5.05;;;9.80;99.90;;;;;;4267905;27;20042;-61
2024/02/12 08:04:37;;;;;;;21.65;5.32;;;9.90;99.90;;;;;;4267987;27;20043;-61
2024/02/12 08:06:42;;;;;;;;;;;10.00;99.90;;;;;;4270054;27;20103;-63
2024/02/12 08:08:47;;;;;;;16.35;4.47;;;9.90;99.90;;;;;;4270221;27;19958;-61
2024/02/12 08:10:49;;;;;;;15.68;3.83;;;10.00;99.90;;;;;;4270572;27;20126;-62
2024/02/12 08:12:51;;;;;;;18.38;4.25;;;9.90;99.90;;;;;;4270908;27;20126;-61
2024/02/12 08:14:53;;;;;;;24.35;4.03;;;9.90;99.90;;;;;;4270842;27;20043;-61
2024/02/12 08:16:55;;;;;;;20.67;4.65;;;9.90;99.90;;;;;;4268515;27;20046;-61
2024/02/12 08:18:57;;;;;;;20.48;4.70;;;10.00;99.90;;;;;;4268155;27;20513;-60
2024/02/12 08:20:59;;;;;;;14.50;4.22;;;10.00;99.90;;;;;;4268500;27;20051;-61
2024/02/12 08:23:03;;;;;;;15.77;4.03;;;10.00;99.90;;;;;;4268158;27;20047;-62
2024/02/12 08:25:07;;;;;;;16.73;5.10;;;10.10;99.90;;;;;;4268786;27;20095;-65
2024/02/12 08:27:09;;;;;;;23.45;4.82;;;10.10;99.90;;;;;;4268332;27;20054;-61
2024/02/12 08:29:12;;;;;;;19.33;4.10;;;10.00;99.90;;;;;;4250187;27;20122;-60
2024/02/12 08:31:17;;;;;;;21.20;4.68;;;10.00;99.90;;;;;;4268110;27;20042;-60
2024/02/12 08:33:20;;;;;;;20.58;4.40;;;10.10;99.90;;;;;;4267838;27;20043;-60
2024/02/12 08:35:22;;;;;;;18.15;4.63;;;10.10;99.90;;;;;;4267894;27;20047;-61
2024/02/12 08:37:24;;;;;;;15.80;4.10;;;10.00;99.90;;;;;;4267741;27;20481;-61
2024/02/12 08:39:26;;;;;;;20.80;4.75;;;10.00;99.90;;;;;;4249245;27;20166;-60
2024/02/12 08:41:30;;;;;;;21.67;5.15;;;10.10;99.90;;;;;;4267828;27;20129;-60
2024/02/12 08:43:32;;;;;;;16.73;4.10;;;10.10;99.90;;;;;;4267530;27;20042;-61
2024/02/12 08:45:35;;;;;;;14.73;3.97;;;10.10;99.90;;;;;;4267430;27;20043;-61
2024/02/12 08:47:38;;;;;;;26.67;4.97;;;10.10;99.90;;;;;;4267289;27;20057;-60
2024/02/12 08:49:42;;;;;;;14.05;3.75;;;10.20;99.90;;;;;;4267324;27;20043;-60
2024/02/12 08:51:45;;;;;;;27.35;4.32;;;10.30;99.90;;;;;;4267357;27;20072;-60
2024/02/12 08:53:49;;;;;;;16.20;4.32;;;10.40;99.90;;;;;;4267443;27;20047;-61
2024/02/12 08:55:52;;;;;;;23.50;3.30;;;10.50;99.90;;;;;;4267225;27;20141;-61
2024/02/12 08:57:57;;;;;;;10.13;2.55;;;10.60;99.90;;;;;;4267465;27;20050;-61
2024/02/12 08:59:59;;;;;;;14.07;3.20;;;10.70;99.90;;;;;;4267454;27;20050;-61
2024/02/12 09:02:01;;;;;;;9.88;3.45;;;10.80;99.90;;;;;;4267341;27;20042;-61
2024/02/12 09:04:03;;;;;;;17.50;3.45;;;10.90;99.90;;;;;;4267039;27;20046;-61
2024/02/12 09:06:08;;;;;;;10.20;3.13;;;10.90;99.90;;;;;;4268092;27;20513;-61
2024/02/12 09:08:10;;;;;;;13.05;3.75;;;10.90;99.90;;;;;;4268649;27;20420;-61
2024/02/12 09:10:13;;;;;;;15.65;3.67;;;10.90;99.90;;;;;;4267369;27;20047;-61
2024/02/12 09:12:15;;;;;;;14.25;3.95;;;10.90;99.90;;;;;;4266837;27;20387;-60
2024/02/12 09:14:19;;;;;;;17.35;3.92;;;10.80;99.90;;;;;;4266232;27;20046;-61
2024/02/12 09:16:21;;;;;;;16.50;4.22;;;10.90;99.90;;;;;;4266831;27;20517;-61
2024/02/12 09:18:24;;;;;;;15.18;4.30;;;10.90;99.90;;;;;;4266509;27;20038;-61
2024/02/12 09:20:26;;;;;;;15.85;3.78;;;10.90;99.90;;;;;;4266906;27;20111;-61
2024/02/12 09:22:29;;;;;;;20.27;4.10;;;10.90;99.90;;;;;;4266932;27;20051;-61
2024/02/12 09:24:32;;;;;;;19.75;4.65;;;10.90;99.90;;;;;;4266933;27;20501;-60
2024/02/12 09:26:36;;;;;;;19.08;5.10;;;10.90;99.90;;;;;;4248363;27;20047;-61
2024/02/12 09:28:38;;;;;;;22.88;5.00;;;11.00;99.90;;;;;;4267249;27;20480;-61
2024/02/12 09:30:41;;;;;;;15.77;4.53;;;10.80;99.90;;;;;;4266715;27;20074;-61
2024/02/12 09:32:44;;;;;;;21.02;4.72;;;10.80;99.90;;;;;;4266413;27;20049;-60
2024/02/12 09:34:46;;;;;;;16.17;4.00;;;10.80;99.90;;;;;;4266705;27;20043;-61
2024/02/12 09:36:49;;;;;;;24.08;4.38;;;10.90;99.90;;;;;;4266670;27;20042;-60
2024/02/12 09:38:52;;;;;;;13.80;3.75;;;10.90;99.90;;;;;;4266835;27;20038;-61
2024/02/12 09:40:57;;;;;;;16.85;3.92;;;11.00;99.90;;;;;;4266857;27;20538;-61
2024/02/12 09:42:59;;;;;;;;;;;11.00;99.90;;;;;;4267145;27;20061;-61
2024/02/12 09:45:07;;;;;;;11.43;3.05;;;11.10;99.90;;;;;;4266690;27;19973;-61
2024/02/12 09:47:14;;;;;;;20.17;4.30;;;11.10;99.90;;;;;;4266042;27;20103;-61
2024/02/12 09:49:17;;;;;;;13.70;3.50;;;11.20;99.90;;;;;;4266703;27;20438;-60
2024/02/12 09:51:23;;;;;;;10.00;3.53;;;11.30;99.90;;;;;;4266644;27;20066;-61
2024/02/12 09:53:27;;;;;;;11.60;3.15;;;11.30;99.90;;;;;;4248491;27;20076;-61
2024/02/12 09:55:31;;;;;;;11.20;3.33;;;11.40;99.90;;;;;;4266696;27;20429;-61
2024/02/12 09:57:33;;;;;;;17.05;4.00;;;11.30;99.90;;;;;;4267303;27;20517;-68
2024/02/12 09:59:35;;;;;;;20.20;4.28;;;11.30;99.90;;;;;;4267453;27;20051;-61
2024/02/12 10:01:38;;;;;;;19.88;4.32;;;11.40;99.90;;;;;;4249081;27;20048;-61
2024/02/12 10:03:43;;;;;;;15.45;4.38;;;11.50;99.90;;;;;;4267208;27;20047;-61
2024/02/12 10:05:46;;;;;;;12.13;4.03;;;11.50;99.90;;;;;;4266956;27;20051;-62
2024/02/12 10:07:48;;;;;;;13.45;3.50;;;11.40;99.90;;;;;;4267050;27;20050;-61
2024/02/12 10:09:51;;;;;;;22.60;3.92;;;11.40;99.90;;;;;;4266512;27;20128;-61
2024/02/12 10:11:54;;;;;;;13.63;4.03;;;11.50;99.90;;;;;;4266108;27;20043;-61
2024/02/12 10:14:00;;;;;;;29.85;5.97;;;11.40;99.90;;;;;;4265946;27;20121;-61
2024/02/12 10:16:04;;;;;;;13.00;4.55;;;11.30;99.90;;;;;;4265638;27;20043;-61
2024/02/12 10:18:09;;;;;;;14.77;4.20;;;11.40;99.90;;;;;;4265643;27;20042;-61
2024/02/12 10:20:13;;;;;;;18.10;3.65;;;11.40;99.90;;;;;;4265903;27;20042;-61
2024/02/12 10:22:16;;;;;;;22.23;6.45;;;11.50;99.90;;;;;;4265729;27;20127;-61
2024/02/12 10:24:18;;;;;;;17.15;4.50;;;11.60;99.90;;;;;;4265650;27;20047;-61
2024/02/12 10:26:23;;;;;;;16.40;4.68;;;11.70;99.90;;;;;;4266075;27;20046;-61
2024/02/12 10:28:26;;;;;;;21.33;4.30;;;12.00;99.90;;;;;;4265782;27;20470;-61
2024/02/12 10:30:28;;;;;;;15.63;4.32;;;12.20;99.80;;;;;;4265563;27;20094;-61
2024/02/12 10:32:32;;;;;;;12.43;3.47;;;12.20;99.70;;;;;;4266050;27;20418;-61
2024/02/12 10:34:39;;;;;;;16.17;3.30;;;12.20;99.60;;;;;;4265716;27;20126;-61
2024/02/12 10:36:47;;;;;;;9.82;3.33;;;12.10;98.90;;;;;;4265604;27;20485;-61
2024/02/12 10:38:50;;;;;;;10.73;3.50;;;12.10;99.50;;;;;;4266010;27;20066;-60
2024/02/12 10:41:03;;;;;;;15.20;3.63;;;12.10;99.20;;;;;;4266642;27;20493;-64
2024/02/12 10:43:08;;;;;;;12.80;3.55;;;12.10;99.60;;;;;;4268367;27;20046;-62
2024/02/12 10:45:10;;;;;;;12.20;3.67;;;12.20;99.70;;;;;;4266378;27;20065;-61
2024/02/12 10:47:14;;;;;;;12.90;3.80;;;12.30;99.70;;;;;;4266906;27;20039;-62
2024/02/12 10:49:17;;;;;;;14.45;3.72;;;12.40;99.90;;;;;;4267613;27;20374;-61
2024/02/12 10:51:23;;;;;;;11.02;3.28;;;12.30;99.10;;;;;;4265793;27;20050;-60
2024/02/12 10:53:31;;;;;;;16.63;4.05;;;12.40;99.70;;;;;;4265754;27;20077;-60
2024/02/12 10:55:35;;;;;;;11.77;3.67;;;12.30;99.40;;;;;;4265324;27;20262;-61